createdAt,value
2018-09-08T00:00:34.354Z,1007.4
2018-09-08T00:01:35.703Z,1007.4
2018-09-08T00:02:37.095Z,1007.4
2018-09-08T00:03:38.455Z,1007.4
2018-09-08T00:04:39.821Z,1007.4
2018-09-08T00:05:41.177Z,1007.4
2018-09-08T00:06:42.530Z,1007.4
2018-09-08T00:07:43.882Z,1007.4
2018-09-08T00:08:45.251Z,1007.4
2018-09-08T00:09:46.606Z,1007.4
2018-09-08T00:10:47.966Z,1007.4
2018-09-08T00:11:49.326Z,1007.4
2018-09-08T00:12:50.696Z,1007.4
2018-09-08T00:13:52.046Z,1007.4
2018-09-08T00:14:53.415Z,1007.4
2018-09-08T00:15:54.770Z,1007.4
2018-09-08T00:16:56.129Z,1007.4
2018-09-08T00:17:57.495Z,1007.4
2018-09-08T00:18:58.861Z,1007.4
2018-09-08T00:20:00.229Z,1007.5
2018-09-08T00:21:01.593Z,1007.4
2018-09-08T00:22:02.939Z,1007.5
2018-09-08T00:23:04.295Z,1007.4
2018-09-08T00:24:05.665Z,1007.4
2018-09-08T00:25:07.016Z,1007.4
2018-09-08T00:26:08.364Z,1007.4
2018-09-08T00:27:09.732Z,1007.5
2018-09-08T00:28:11.086Z,1007.4
2018-09-08T00:29:12.444Z,1007.4
2018-09-08T00:30:13.795Z,1007.5
2018-09-08T00:31:15.155Z,1007.5
2018-09-08T00:32:16.525Z,1007.5
2018-09-08T00:33:17.992Z,1007.5
2018-09-08T00:34:19.593Z,1007.4
2018-09-08T00:35:20.921Z,1007.5
2018-09-08T00:36:22.298Z,1007.4
2018-09-08T00:37:23.645Z,1007.5
2018-09-08T00:38:25.013Z,1007.5
2018-09-08T00:39:26.365Z,1007.5
2018-09-08T00:40:27.732Z,1007.5
2018-09-08T00:41:29.123Z,1007.5
2018-09-08T00:42:30.449Z,1007.5
2018-09-08T00:43:31.810Z,1007.5
2018-09-08T00:44:33.163Z,1007.6
2018-09-08T00:45:34.532Z,1007.6
2018-09-08T00:46:35.890Z,1007.6
2018-09-08T00:47:37.264Z,1007.6
2018-09-08T00:48:38.611Z,1007.6
2018-09-08T00:49:39.989Z,1007.6
2018-09-08T00:50:41.455Z,1007.6
2018-09-08T00:51:42.860Z,1007.6
2018-09-08T00:52:44.222Z,1007.6
2018-09-08T00:53:45.585Z,1007.6
2018-09-08T00:54:46.951Z,1007.6
2018-09-08T00:55:48.320Z,1007.6
2018-09-08T00:56:49.681Z,1007.6
2018-09-08T00:57:51.043Z,1007.6
2018-09-08T00:58:52.398Z,1007.6
2018-09-08T00:59:53.761Z,1007.6
2018-09-08T01:00:55.125Z,1007.6
2018-09-08T01:01:56.501Z,1007.7
2018-09-08T01:02:57.846Z,1007.6
2018-09-08T01:03:59.214Z,1007.6
2018-09-08T01:05:00.561Z,1007.6
2018-09-08T01:06:01.916Z,1007.7
2018-09-08T01:07:03.272Z,1007.6
2018-09-08T01:08:04.641Z,1007.6
2018-09-08T01:09:06.012Z,1007.6
2018-09-08T01:10:07.366Z,1007.7
2018-09-08T01:11:08.721Z,1007.7
2018-09-08T01:12:10.082Z,1007.7
2018-09-08T01:13:11.446Z,1007.7
2018-09-08T01:14:12.800Z,1007.7
2018-09-08T01:15:14.160Z,1007.7
2018-09-08T01:16:15.515Z,1007.7
2018-09-08T01:17:16.915Z,1007.8
2018-09-08T01:18:18.235Z,1007.8
2018-09-08T01:19:19.595Z,1007.8
2018-09-08T01:20:20.956Z,1007.7
2018-09-08T01:21:22.305Z,1007.8
2018-09-08T01:22:23.656Z,1007.8
2018-09-08T01:23:25.020Z,1007.8
2018-09-08T01:24:26.375Z,1007.8
2018-09-08T01:25:27.748Z,1007.8
2018-09-08T01:26:29.099Z,1007.8
2018-09-08T01:27:30.452Z,1007.8
2018-09-08T01:28:31.817Z,1007.8
2018-09-08T01:29:33.179Z,1007.8
2018-09-08T01:30:34.545Z,1007.8
2018-09-08T01:31:35.902Z,1007.8
2018-09-08T01:32:37.260Z,1007.9
2018-09-08T01:33:38.610Z,1007.9
2018-09-08T01:34:39.972Z,1007.9
2018-09-08T01:35:41.330Z,1007.9
2018-09-08T01:36:42.693Z,1007.9
2018-09-08T01:37:44.057Z,1007.9
2018-09-08T01:38:45.424Z,1007.9
2018-09-08T01:39:46.789Z,1007.9
2018-09-08T01:40:48.137Z,1007.9
2018-09-08T01:41:49.505Z,1007.9
2018-09-08T01:42:50.862Z,1007.9
2018-09-08T01:43:52.225Z,1007.9
2018-09-08T01:44:53.580Z,1007.9
2018-09-08T01:45:54.951Z,1007.9
2018-09-08T01:46:56.302Z,1007.9
2018-09-08T01:47:57.655Z,1007.9
2018-09-08T01:48:59.006Z,1007.9
2018-09-08T01:50:00.363Z,1008.0
2018-09-08T01:51:01.726Z,1008.0
2018-09-08T01:52:03.087Z,1008.0
2018-09-08T01:53:04.452Z,1008.0
2018-09-08T01:54:05.817Z,1008.0
2018-09-08T01:55:07.165Z,1008.0
2018-09-08T01:56:08.531Z,1008.0
2018-09-08T01:57:09.912Z,1008.0
2018-09-08T01:58:11.268Z,1008.1
2018-09-08T01:59:12.630Z,1008.0
2018-09-08T02:00:13.992Z,1008.0
2018-09-08T02:01:15.373Z,1008.1
2018-09-08T02:02:16.731Z,1008.1
2018-09-08T02:03:18.082Z,1008.0
2018-09-08T02:04:19.446Z,1008.0
2018-09-08T02:05:20.800Z,1008.1
2018-09-08T02:06:22.158Z,1008.1
2018-09-08T02:07:23.521Z,1008.1
2018-09-08T02:08:24.877Z,1008.1
2018-09-08T02:09:26.238Z,1008.1
2018-09-08T02:10:27.596Z,1008.1
2018-09-08T02:11:28.967Z,1008.0
2018-09-08T02:12:30.317Z,1008.1
2018-09-08T02:13:31.691Z,1008.1
2018-09-08T02:14:33.055Z,1008.1
2018-09-08T02:15:34.411Z,1008.1
2018-09-08T02:16:35.771Z,1008.1
2018-09-08T02:17:37.131Z,1008.1
2018-09-08T02:18:38.486Z,1008.1
2018-09-08T02:19:39.843Z,1008.1
2018-09-08T02:20:41.208Z,1008.1
2018-09-08T02:21:42.571Z,1008.1
2018-09-08T02:22:43.927Z,1008.0
2018-09-08T02:23:45.302Z,1008.1
2018-09-08T02:24:46.656Z,1008.0
2018-09-08T02:25:48.011Z,1008.0
2018-09-08T02:26:49.378Z,1008.0
2018-09-08T02:27:50.723Z,1008.1
2018-09-08T02:28:52.095Z,1008.1
2018-09-08T02:29:53.448Z,1008.1
2018-09-08T02:30:54.811Z,1008.1
2018-09-08T02:31:56.176Z,1008.1
2018-09-08T02:32:57.536Z,1008.1
2018-09-08T02:33:58.887Z,1008.1
2018-09-08T02:35:00.241Z,1008.1
2018-09-08T02:36:01.607Z,1008.1
2018-09-08T02:37:02.972Z,1008.2
2018-09-08T02:38:04.333Z,1008.1
2018-09-08T02:39:05.683Z,1008.1
2018-09-08T02:40:07.048Z,1008.1
2018-09-08T02:41:08.412Z,1008.1
2018-09-08T02:42:09.771Z,1008.1
2018-09-08T02:43:11.126Z,1008.0
2018-09-08T02:44:12.487Z,1008.0
2018-09-08T02:45:13.853Z,1008.1
2018-09-08T02:46:15.204Z,1008.0
2018-09-08T02:47:16.565Z,1008.0
2018-09-08T02:48:17.966Z,1008.0
2018-09-08T02:49:19.329Z,1008.0
2018-09-08T02:50:20.691Z,1008.0
2018-09-08T02:51:22.043Z,1008.1
2018-09-08T02:52:23.408Z,1008.1
2018-09-08T02:53:24.768Z,1008.1
2018-09-08T02:54:26.132Z,1008.0
2018-09-08T02:55:27.492Z,1008.1
2018-09-08T02:56:28.853Z,1008.1
2018-09-08T02:57:30.214Z,1008.1
2018-09-08T02:58:31.567Z,1008.1
2018-09-08T02:59:32.918Z,1008.1
2018-09-08T03:00:34.336Z,1008.1
2018-09-08T03:01:35.648Z,1008.1
2018-09-08T03:02:37.014Z,1008.1
2018-09-08T03:03:38.378Z,1008.1
2018-09-08T03:04:39.755Z,1008.1
2018-09-08T03:05:41.101Z,1008.1
2018-09-08T03:06:42.448Z,1008.1
2018-09-08T03:07:43.816Z,1008.1
2018-09-08T03:08:45.161Z,1008.2
2018-09-08T03:09:46.517Z,1008.1
2018-09-08T03:10:47.871Z,1008.2
2018-09-08T03:11:49.231Z,1008.2
2018-09-08T03:12:50.583Z,1008.1
2018-09-08T03:13:51.937Z,1008.2
2018-09-08T03:14:53.292Z,1008.2
2018-09-08T03:15:54.653Z,1008.2
2018-09-08T03:16:56.025Z,1008.2
2018-09-08T03:17:57.378Z,1008.1
2018-09-08T03:18:58.753Z,1008.2
2018-09-08T03:20:00.088Z,1008.2
2018-09-08T03:21:01.438Z,1008.2
2018-09-08T03:22:02.792Z,1008.2
2018-09-08T03:23:04.151Z,1008.2
2018-09-08T03:24:05.517Z,1008.2
2018-09-08T03:25:06.875Z,1008.2
2018-09-08T03:26:08.231Z,1008.2
2018-09-08T03:27:09.591Z,1008.2
2018-09-08T03:28:10.959Z,1008.3
2018-09-08T03:29:12.306Z,1008.2
2018-09-08T03:30:13.670Z,1008.2
2018-09-08T03:31:15.027Z,1008.2
2018-09-08T03:32:16.381Z,1008.2
2018-09-08T03:33:17.737Z,1008.2
2018-09-08T03:34:19.107Z,1008.2
2018-09-08T03:35:20.461Z,1008.2
2018-09-08T03:36:21.818Z,1008.3
2018-09-08T03:37:23.168Z,1008.2
2018-09-08T03:38:24.528Z,1008.3
2018-09-08T03:39:25.881Z,1008.3
2018-09-08T03:40:27.241Z,1008.3
2018-09-08T03:41:28.588Z,1008.3
2018-09-08T03:42:29.961Z,1008.4
2018-09-08T03:43:31.311Z,1008.3
2018-09-08T03:44:32.669Z,1008.3
2018-09-08T03:45:34.027Z,1008.3
2018-09-08T03:46:35.387Z,1008.3
2018-09-08T03:47:36.783Z,1008.3
2018-09-08T03:48:38.129Z,1008.3
2018-09-08T03:49:39.495Z,1008.3
2018-09-08T03:50:40.846Z,1008.3
2018-09-08T03:51:42.207Z,1008.3
2018-09-08T03:52:44.208Z,1008.3
2018-09-08T03:53:45.571Z,1008.3
2018-09-08T03:54:46.947Z,1008.3
2018-09-08T03:55:48.293Z,1008.3
2018-09-08T03:56:49.654Z,1008.3
2018-09-08T03:57:51.008Z,1008.3
2018-09-08T03:58:52.429Z,1008.3
2018-09-08T03:59:53.723Z,1008.3
2018-09-08T04:00:55.086Z,1008.2
2018-09-08T04:01:56.445Z,1008.3
2018-09-08T04:02:57.806Z,1008.3
2018-09-08T04:03:59.163Z,1008.3
2018-09-08T04:05:00.511Z,1008.3
2018-09-08T04:06:01.877Z,1008.3
2018-09-08T04:07:03.294Z,1008.3
2018-09-08T04:08:04.663Z,1008.2
2018-09-08T04:09:06.041Z,1008.2
2018-09-08T04:10:07.397Z,1008.2
2018-09-08T04:11:08.785Z,1008.2
2018-09-08T04:12:10.112Z,1008.3
2018-09-08T04:13:11.469Z,1008.3
2018-09-08T04:14:12.823Z,1008.3
2018-09-08T04:15:14.199Z,1008.3
2018-09-08T04:16:15.559Z,1008.3
2018-09-08T04:17:16.901Z,1008.3
2018-09-08T04:18:18.274Z,1008.3
2018-09-08T04:19:19.612Z,1008.3
2018-09-08T04:20:20.972Z,1008.4
2018-09-08T04:21:22.317Z,1008.4
2018-09-08T04:22:23.684Z,1008.3
2018-09-08T04:23:25.036Z,1008.4
2018-09-08T04:24:26.397Z,1008.4
2018-09-08T04:25:27.746Z,1008.4
2018-09-08T04:26:29.103Z,1008.3
2018-09-08T04:27:30.463Z,1008.3
2018-09-08T04:28:31.823Z,1008.3
2018-09-08T04:29:33.185Z,1008.4
2018-09-08T04:30:34.532Z,1008.4
2018-09-08T04:31:35.892Z,1008.4
2018-09-08T04:32:37.241Z,1008.4
2018-09-08T04:33:38.596Z,1008.4
2018-09-08T04:34:39.964Z,1008.4
2018-09-08T04:35:41.318Z,1008.4
2018-09-08T04:36:42.669Z,1008.4
2018-09-08T04:37:44.557Z,1008.5
2018-09-08T04:38:45.916Z,1008.5
2018-09-08T04:39:47.275Z,1008.4
2018-09-08T04:40:48.645Z,1008.5
2018-09-08T04:41:49.998Z,1008.5
2018-09-08T04:42:51.358Z,1008.5
2018-09-08T04:43:52.723Z,1008.5
2018-09-08T04:44:54.087Z,1008.5
2018-09-08T04:45:55.440Z,1008.6
2018-09-08T04:46:56.799Z,1008.6
2018-09-08T04:47:58.149Z,1008.6
2018-09-08T04:48:59.514Z,1008.6
2018-09-08T04:50:00.869Z,1008.6
2018-09-08T04:51:02.229Z,1008.6
2018-09-08T04:52:03.589Z,1008.6
2018-09-08T04:53:04.943Z,1008.6
2018-09-08T04:54:06.316Z,1008.6
2018-09-08T04:55:07.663Z,1008.6
2018-09-08T04:56:09.024Z,1008.6
2018-09-08T04:57:10.387Z,1008.6
2018-09-08T04:58:11.742Z,1008.7
2018-09-08T04:59:13.099Z,1008.6
2018-09-08T05:00:14.478Z,1008.7
2018-09-08T05:01:15.837Z,1008.6
2018-09-08T05:02:17.206Z,1008.7
2018-09-08T05:03:18.563Z,1008.7
2018-09-08T05:04:19.913Z,1008.7
2018-09-08T05:05:21.277Z,1008.7
2018-09-08T05:06:22.646Z,1008.8
2018-09-08T05:07:24.013Z,1008.8
2018-09-08T05:08:25.360Z,1008.8
2018-09-08T05:09:26.709Z,1008.8
2018-09-08T05:10:28.065Z,1008.8
2018-09-08T05:11:29.430Z,1008.8
2018-09-08T05:12:30.792Z,1008.8
2018-09-08T05:13:32.148Z,1008.9
2018-09-08T05:14:33.870Z,1008.9
2018-09-08T05:15:35.254Z,1008.9
2018-09-08T05:16:36.609Z,1008.9
2018-09-08T05:17:40.013Z,1008.9
2018-09-08T05:18:41.363Z,1008.9
2018-09-08T05:19:42.722Z,1008.9
2018-09-08T05:20:44.675Z,1008.9
2018-09-08T05:21:46.050Z,1008.9
2018-09-08T05:22:47.401Z,1008.9
2018-09-08T05:23:48.769Z,1008.9
2018-09-08T05:24:50.129Z,1008.9
2018-09-08T05:25:51.537Z,1008.8
2018-09-08T05:26:52.879Z,1008.9
2018-09-08T05:27:54.255Z,1008.9
2018-09-08T05:28:55.618Z,1008.9
2018-09-08T05:29:56.967Z,1009.0
2018-09-08T05:30:58.343Z,1008.9
2018-09-08T05:31:59.693Z,1009.0
2018-09-08T05:33:01.054Z,1009.0
2018-09-08T05:34:02.425Z,1009.0
2018-09-08T05:35:03.790Z,1009.0
2018-09-08T05:36:05.138Z,1009.0
2018-09-08T05:37:06.509Z,1009.0
2018-09-08T05:38:07.860Z,1009.0
2018-09-08T05:39:09.215Z,1009.0
2018-09-08T05:40:10.583Z,1009.0
2018-09-08T05:41:11.943Z,1009.0
2018-09-08T05:42:13.300Z,1009.0
2018-09-08T05:43:14.668Z,1009.0
2018-09-08T05:44:16.026Z,1009.0
2018-09-08T05:45:18.031Z,1009.1
2018-09-08T05:46:19.389Z,1009.1
2018-09-08T05:47:20.759Z,1009.1
2018-09-08T05:48:22.130Z,1009.1
2018-09-08T05:49:23.483Z,1009.2
2018-09-08T05:50:24.891Z,1009.1
2018-09-08T05:51:26.244Z,1009.1
2018-09-08T05:52:27.598Z,1009.1
2018-09-08T05:53:28.963Z,1009.1
2018-09-08T05:54:30.340Z,1009.1
2018-09-08T05:55:31.703Z,1009.1
2018-09-08T05:56:33.065Z,1009.1
2018-09-08T05:57:34.430Z,1009.2
2018-09-08T05:58:35.834Z,1009.1
2018-09-08T05:59:37.149Z,1009.2
2018-09-08T06:00:38.519Z,1009.2
2018-09-08T06:01:39.879Z,1009.2
2018-09-08T06:02:41.245Z,1009.2
2018-09-08T06:03:42.601Z,1009.2
2018-09-08T06:04:43.973Z,1009.2
2018-09-08T06:05:45.333Z,1009.2
2018-09-08T06:06:46.689Z,1009.2
2018-09-08T06:07:48.058Z,1009.2
2018-09-08T06:08:49.438Z,1009.2
2018-09-08T06:09:50.803Z,1009.2
2018-09-08T06:10:52.170Z,1009.2
2018-09-08T06:11:53.529Z,1009.2
2018-09-08T06:12:54.890Z,1009.3
2018-09-08T06:13:56.255Z,1009.3
2018-09-08T06:14:57.615Z,1009.3
2018-09-08T06:15:58.974Z,1009.3
2018-09-08T06:17:00.343Z,1009.3
2018-09-08T06:18:01.712Z,1009.3
2018-09-08T06:19:03.054Z,1009.3
2018-09-08T06:20:04.415Z,1009.3
2018-09-08T06:21:05.814Z,1009.3
2018-09-08T06:22:07.183Z,1009.3
2018-09-08T06:23:08.537Z,1009.4
2018-09-08T06:24:09.894Z,1009.3
2018-09-08T06:25:11.254Z,1009.3
2018-09-08T06:26:12.624Z,1009.4
2018-09-08T06:27:13.980Z,1009.3
2018-09-08T06:28:15.369Z,1009.3
2018-09-08T06:29:16.704Z,1009.4
2018-09-08T06:30:18.088Z,1009.3
2018-09-08T06:31:19.466Z,1009.4
2018-09-08T06:32:20.835Z,1009.4
2018-09-08T06:33:22.206Z,1009.4
2018-09-08T06:34:23.559Z,1009.4
2018-09-08T06:35:25.016Z,1009.4
2018-09-08T06:36:26.499Z,1009.5
2018-09-08T06:37:28.438Z,1009.5
2018-09-08T06:38:29.762Z,1009.6
2018-09-08T06:39:31.374Z,1009.6
2018-09-08T06:40:32.740Z,1009.6
2018-09-08T06:41:34.489Z,1009.6
2018-09-08T06:42:36.970Z,1009.6
2018-09-08T06:43:38.439Z,1009.5
2018-09-08T06:44:40.097Z,1009.6
2018-09-08T06:45:41.644Z,1009.5
2018-09-08T06:46:43.200Z,1009.6
2018-09-08T06:47:44.650Z,1009.6
2018-09-08T06:48:46.154Z,1009.5
2018-09-08T06:49:47.650Z,1009.5
2018-09-08T06:50:49.183Z,1009.6
2018-09-08T06:51:50.678Z,1009.5
2018-09-08T06:52:52.195Z,1009.5
2018-09-08T06:53:53.698Z,1009.5
2018-09-08T06:54:55.191Z,1009.5
2018-09-08T06:55:56.709Z,1009.5
2018-09-08T06:56:58.189Z,1009.5
2018-09-08T06:57:59.778Z,1009.6
2018-09-08T06:59:01.019Z,1009.6
2018-09-08T07:00:02.528Z,1009.7
2018-09-08T07:01:04.070Z,1009.6
2018-09-08T07:02:05.475Z,1009.6
2018-09-08T07:03:08.849Z,1009.6
2018-09-08T07:04:10.233Z,1009.6
2018-09-08T07:05:11.753Z,1009.7
2018-09-08T07:06:13.190Z,1009.6
2018-09-08T07:07:15.019Z,1009.7
2018-09-08T07:08:16.570Z,1009.7
2018-09-08T07:09:18.103Z,1009.7
2018-09-08T07:10:19.904Z,1009.7
2018-09-08T07:11:21.450Z,1009.7
2018-09-08T07:12:24.066Z,1009.7
2018-09-08T07:13:25.541Z,1009.8
2018-09-08T07:14:27.083Z,1009.7
2018-09-08T07:15:28.634Z,1009.7
2018-09-08T07:16:30.194Z,1009.8
2018-09-08T07:17:31.808Z,1009.7
2018-09-08T07:18:33.379Z,1009.7
2018-09-08T07:19:35.149Z,1009.7
2018-09-08T07:20:36.815Z,1009.7
2018-09-08T07:21:38.216Z,1009.9
2018-09-08T07:22:39.674Z,1009.9
2018-09-08T07:23:41.089Z,1009.8
2018-09-08T07:24:42.573Z,1009.9
2018-09-08T07:25:44.087Z,1009.9
2018-09-08T07:26:45.596Z,1009.9
2018-09-08T07:27:48.168Z,1009.9
2018-09-08T07:28:49.657Z,1010.0
2018-09-08T07:29:51.138Z,1010.0
2018-09-08T07:30:52.573Z,1010.0
2018-09-08T07:31:54.014Z,1009.9
2018-09-08T07:32:55.468Z,1010.0
2018-09-08T07:33:56.963Z,1010.0
2018-09-08T07:34:58.505Z,1010.0
2018-09-08T07:36:00.044Z,1010.0
2018-09-08T07:37:01.514Z,1010.0
2018-09-08T07:38:02.926Z,1010.1
2018-09-08T07:39:04.429Z,1010.1
2018-09-08T07:40:05.885Z,1010.2
2018-09-08T07:41:07.384Z,1010.1
2018-09-08T07:42:08.824Z,1010.1
2018-09-08T07:43:10.226Z,1010.2
2018-09-08T07:44:11.639Z,1010.1
2018-09-08T07:45:13.058Z,1010.1
2018-09-08T07:46:14.587Z,1010.1
2018-09-08T07:47:16.109Z,1010.2
2018-09-08T07:48:17.579Z,1010.2
2018-09-08T07:49:18.994Z,1010.2
2018-09-08T07:50:20.475Z,1010.2
2018-09-08T07:51:21.880Z,1010.2
2018-09-08T07:52:23.259Z,1010.2
2018-09-08T07:53:24.651Z,1010.2
2018-09-08T07:54:25.981Z,1010.3
2018-09-08T07:55:27.436Z,1010.2
2018-09-08T07:56:28.775Z,1010.2
2018-09-08T07:57:30.150Z,1010.2
2018-09-08T07:58:31.532Z,1010.2
2018-09-08T07:59:32.934Z,1010.2
2018-09-08T08:00:34.382Z,1010.3
2018-09-08T08:01:35.839Z,1010.2
2018-09-08T08:02:37.284Z,1010.2
2018-09-08T08:03:38.719Z,1010.2
2018-09-08T08:04:40.174Z,1010.3
2018-09-08T08:05:41.700Z,1010.2
2018-09-08T08:06:43.241Z,1010.2
2018-09-08T08:07:44.614Z,1010.2
2018-09-08T08:08:46.011Z,1010.2
2018-09-08T08:09:47.450Z,1010.2
2018-09-08T08:10:48.830Z,1010.2
2018-09-08T08:11:50.203Z,1010.2
2018-09-08T08:12:51.611Z,1010.2
2018-09-08T08:13:52.990Z,1010.1
2018-09-08T08:14:54.376Z,1010.2
2018-09-08T08:15:55.754Z,1010.1
2018-09-08T08:16:57.125Z,1010.2
2018-09-08T08:17:58.525Z,1010.2
2018-09-08T08:18:59.916Z,1010.1
2018-09-08T08:20:01.305Z,1010.2
2018-09-08T08:21:02.710Z,1010.2
2018-09-08T08:22:04.101Z,1010.2
2018-09-08T08:23:05.510Z,1010.2
2018-09-08T08:24:06.844Z,1010.2
2018-09-08T08:25:08.221Z,1010.2
2018-09-08T08:26:09.608Z,1010.2
2018-09-08T08:27:10.976Z,1010.3
2018-09-08T08:28:12.372Z,1010.2
2018-09-08T08:29:13.744Z,1010.2
2018-09-08T08:30:15.120Z,1010.1
2018-09-08T08:31:16.538Z,1010.2
2018-09-08T08:32:17.925Z,1010.3
2018-09-08T08:33:19.366Z,1010.2
2018-09-08T08:34:20.751Z,1010.2
2018-09-08T08:35:22.130Z,1010.2
2018-09-08T08:36:23.504Z,1010.2
2018-09-08T08:37:24.896Z,1010.2
2018-09-08T08:38:26.269Z,1010.3
2018-09-08T08:39:27.659Z,1010.3
2018-09-08T08:40:29.055Z,1010.2
2018-09-08T08:41:30.458Z,1010.2
2018-09-08T08:42:31.841Z,1010.2
2018-09-08T08:43:33.236Z,1010.3
2018-09-08T08:44:34.634Z,1010.2
2018-09-08T08:45:36.029Z,1010.3
2018-09-08T08:46:37.420Z,1010.2
2018-09-08T08:47:38.810Z,1010.2
2018-09-08T08:48:40.190Z,1010.2
2018-09-08T08:49:41.567Z,1010.2
2018-09-08T08:50:42.947Z,1010.2
2018-09-08T08:51:44.360Z,1010.1
2018-09-08T08:52:45.776Z,1010.2
2018-09-08T08:53:47.181Z,1010.2
2018-09-08T08:54:48.575Z,1010.2
2018-09-08T08:55:50.027Z,1010.2
2018-09-08T08:56:51.422Z,1010.2
2018-09-08T08:57:52.821Z,1010.2
2018-09-08T08:58:54.255Z,1010.2
2018-09-08T08:59:55.694Z,1010.2
2018-09-08T09:00:57.111Z,1010.3
2018-09-08T09:01:59.238Z,1010.2
2018-09-08T09:03:00.604Z,1010.2
2018-09-08T09:04:02.010Z,1010.1
2018-09-08T09:06:18.132Z,1010.1
2018-09-08T09:09:21.806Z,1010.1
2018-09-08T09:10:23.188Z,1010.1
2018-09-08T09:11:24.569Z,1010.1
2018-09-08T09:12:25.951Z,1010.1
2018-09-08T09:13:27.529Z,1010.0
2018-09-08T09:15:17.242Z,1010.1
2018-09-08T09:17:42.521Z,1010.0
2018-09-08T09:18:44.239Z,1010.0
2018-09-08T09:19:45.371Z,1010.0
2018-09-08T09:20:46.771Z,1010.0
2018-09-08T09:21:48.267Z,1010.0
2018-09-08T09:22:49.672Z,1009.9
2018-09-08T09:23:51.109Z,1009.9
2018-09-08T09:24:52.918Z,1009.9
2018-09-08T09:25:54.098Z,1009.8
2018-09-08T09:26:55.551Z,1009.8
2018-09-08T09:27:56.963Z,1009.8
2018-09-08T09:28:58.661Z,1009.8
2018-09-08T09:30:00.069Z,1009.8
2018-09-08T09:31:01.454Z,1009.8
2018-09-08T09:32:02.835Z,1009.9
2018-09-08T09:33:04.272Z,1009.8
2018-09-08T09:34:05.815Z,1009.8
2018-09-08T09:35:07.416Z,1009.8
2018-09-08T09:36:08.905Z,1009.8
2018-09-08T09:37:10.429Z,1009.8
2018-09-08T09:38:11.811Z,1009.7
2018-09-08T09:39:13.275Z,1009.7
2018-09-08T09:40:14.677Z,1009.8
2018-09-08T09:41:16.117Z,1009.8
2018-09-08T09:42:17.976Z,1009.8
2018-09-08T09:43:19.418Z,1009.7
2018-09-08T09:44:20.891Z,1009.7
2018-09-08T09:45:22.248Z,1009.7
2018-09-08T09:46:23.696Z,1009.7
2018-09-08T09:47:28.642Z,1009.8
2018-09-08T09:48:30.468Z,1009.8
2018-09-08T09:49:31.919Z,1009.7
2018-09-08T09:50:33.724Z,1009.7
2018-09-08T09:51:35.216Z,1009.7
2018-09-08T09:52:36.753Z,1009.7
2018-09-08T09:53:38.761Z,1009.8
2018-09-08T09:54:40.303Z,1009.7
2018-09-08T09:55:42.162Z,1009.7
2018-09-08T09:56:43.640Z,1009.7
2018-09-08T09:57:45.110Z,1009.7
2018-09-08T09:58:47.375Z,1009.7
2018-09-08T09:59:49.069Z,1009.7
2018-09-08T10:00:50.870Z,1009.6
2018-09-08T10:01:52.299Z,1009.7
2018-09-08T10:02:53.721Z,1009.7
2018-09-08T10:03:55.793Z,1009.6
2018-09-08T10:04:57.257Z,1009.7
2018-09-08T10:05:58.687Z,1009.6
2018-09-08T10:07:00.106Z,1009.6
2018-09-08T10:08:01.480Z,1009.6
2018-09-08T10:09:02.870Z,1009.6
2018-09-08T10:10:04.286Z,1009.6
2018-09-08T10:11:05.695Z,1009.5
2018-09-08T10:12:07.504Z,1009.5
2018-09-08T10:13:08.822Z,1009.5
2018-09-08T10:14:10.222Z,1009.5
2018-09-08T10:15:11.950Z,1009.6
2018-09-08T10:16:13.410Z,1009.5
2018-09-08T10:17:15.253Z,1009.5
2018-09-08T10:18:16.681Z,1009.5
2018-09-08T10:19:18.110Z,1009.6
2018-09-08T10:20:19.916Z,1009.7
2018-09-08T10:21:21.332Z,1009.5
2018-09-08T10:22:23.270Z,1009.6
2018-09-08T10:23:24.735Z,1009.6
2018-09-08T10:24:26.121Z,1009.6
2018-09-08T10:25:27.796Z,1009.6
2018-09-08T10:26:29.386Z,1009.6
2018-09-08T10:27:30.795Z,1009.5
2018-09-08T10:28:31.993Z,1009.5
2018-09-08T10:29:33.781Z,1009.5
2018-09-08T10:30:34.906Z,1009.5
2018-09-08T10:31:36.300Z,1009.3
2018-09-08T10:32:37.903Z,1009.4
2018-09-08T10:33:39.287Z,1009.5
2018-09-08T10:34:40.726Z,1009.5
2018-09-08T10:35:42.388Z,1009.4
2018-09-08T10:36:43.861Z,1009.5
2018-09-08T10:37:45.320Z,1009.5
2018-09-08T10:38:46.760Z,1009.5
2018-09-08T10:39:48.192Z,1009.4
2018-09-08T10:40:49.611Z,1009.4
2018-09-08T10:41:51.001Z,1009.3
2018-09-08T10:42:52.391Z,1009.3
2018-09-08T10:43:53.787Z,1009.4
2018-09-08T10:44:55.165Z,1009.5
2018-09-08T10:45:56.550Z,1009.5
2018-09-08T10:46:57.938Z,1009.5
2018-09-08T10:47:59.326Z,1009.5
2018-09-08T10:49:00.718Z,1009.5
2018-09-08T10:50:02.125Z,1009.4
2018-09-08T10:51:03.526Z,1009.4
2018-09-08T10:52:04.900Z,1009.4
2018-09-08T10:53:06.294Z,1009.5
2018-09-08T10:54:07.685Z,1009.4
2018-09-08T10:55:09.057Z,1009.4
2018-09-08T10:56:10.447Z,1009.5
2018-09-08T10:57:11.831Z,1009.5
2018-09-08T10:58:13.228Z,1009.4
2018-09-08T10:59:14.645Z,1009.4
2018-09-08T11:00:16.021Z,1009.4
2018-09-08T11:01:17.405Z,1009.4
2018-09-08T11:02:18.989Z,1009.4
2018-09-08T11:03:20.143Z,1009.4
2018-09-08T11:04:21.529Z,1009.4
2018-09-08T11:05:22.987Z,1009.4
2018-09-08T11:06:24.398Z,1009.4
2018-09-08T11:07:26.067Z,1009.3
2018-09-08T11:08:27.452Z,1009.2
2018-09-08T11:09:29.236Z,1009.3
2018-09-08T11:10:30.641Z,1009.3
2018-09-08T11:11:32.049Z,1009.2
2018-09-08T11:12:33.438Z,1009.4
2018-09-08T11:13:34.822Z,1009.3
2018-09-08T11:14:36.423Z,1009.3
2018-09-08T11:15:37.801Z,1009.4
2018-09-08T11:16:39.193Z,1009.3
2018-09-08T11:17:40.585Z,1009.3
2018-09-08T11:18:41.998Z,1009.3
2018-09-08T11:19:43.353Z,1009.3
2018-09-08T11:20:44.749Z,1009.3
2018-09-08T11:21:46.953Z,1009.3
2018-09-08T11:22:48.342Z,1009.3
2018-09-08T11:23:49.723Z,1009.3
2018-09-08T11:24:51.107Z,1009.2
2018-09-08T11:25:52.606Z,1009.2
2018-09-08T11:26:54.011Z,1009.2
2018-09-08T11:27:55.443Z,1009.3
2018-09-08T11:28:56.829Z,1009.3
2018-09-08T11:29:58.234Z,1009.3
2018-09-08T11:30:59.746Z,1009.3
2018-09-08T11:32:01.132Z,1009.3
2018-09-08T11:33:02.524Z,1009.2
2018-09-08T11:34:03.897Z,1009.2
2018-09-08T11:35:05.313Z,1009.2
2018-09-08T11:36:06.699Z,1009.2
2018-09-08T11:37:08.087Z,1009.2
2018-09-08T11:38:09.594Z,1009.2
2018-09-08T11:39:10.893Z,1009.2
2018-09-08T11:40:12.281Z,1009.2
2018-09-08T11:41:13.672Z,1009.2
2018-09-08T11:42:15.059Z,1009.2
2018-09-08T11:43:16.448Z,1009.2
2018-09-08T11:44:17.824Z,1009.2
2018-09-08T11:45:19.227Z,1009.2
2018-09-08T11:46:20.614Z,1009.2
2018-09-08T11:47:21.998Z,1009.1
2018-09-08T11:48:23.503Z,1009.1
2018-09-08T11:49:24.917Z,1009.0
2018-09-08T11:50:26.274Z,1009.1
2018-09-08T11:51:27.659Z,1009.0
2018-09-08T11:52:29.042Z,1009.0
2018-09-08T11:53:30.423Z,1009.0
2018-09-08T11:54:31.819Z,1009.0
2018-09-08T11:55:33.268Z,1009.0
2018-09-08T11:56:34.598Z,1009.0
2018-09-08T11:57:35.987Z,1008.9
2018-09-08T11:58:37.376Z,1009.0
2018-09-08T11:59:38.781Z,1009.0
2018-09-08T12:00:40.174Z,1008.9
2018-09-08T12:01:41.567Z,1008.9
2018-09-08T12:02:42.948Z,1008.9
2018-09-08T12:03:44.338Z,1008.9
2018-09-08T12:04:45.722Z,1008.9
2018-09-08T12:05:47.110Z,1008.9
2018-09-08T12:06:48.505Z,1008.9
2018-09-08T12:07:49.897Z,1008.9
2018-09-08T12:08:51.284Z,1008.9
2018-09-08T12:09:52.668Z,1008.9
2018-09-08T12:10:54.081Z,1008.8
2018-09-08T12:11:55.712Z,1008.9
2018-09-08T12:12:57.113Z,1008.9
2018-09-08T12:13:58.554Z,1008.9
2018-09-08T12:14:59.926Z,1008.9
2018-09-08T12:16:01.303Z,1009.0
2018-09-08T12:17:02.699Z,1008.9
2018-09-08T12:18:04.099Z,1008.9
2018-09-08T12:19:05.499Z,1008.9
2018-09-08T12:20:06.886Z,1008.9
2018-09-08T12:21:08.268Z,1008.9
2018-09-08T12:22:09.681Z,1008.9
2018-09-08T12:23:10.986Z,1009.0
2018-09-08T12:24:12.381Z,1009.0
2018-09-08T12:25:13.768Z,1009.0
2018-09-08T12:26:15.173Z,1008.9
2018-09-08T12:27:16.531Z,1009.0
2018-09-08T12:28:17.907Z,1008.9
2018-09-08T12:29:19.289Z,1008.9
2018-09-08T12:30:20.740Z,1008.8
2018-09-08T12:31:22.064Z,1008.9
2018-09-08T12:32:23.470Z,1008.8
2018-09-08T12:33:24.848Z,1008.9
2018-09-08T12:34:26.239Z,1009.0
2018-09-08T12:35:27.631Z,1008.8
2018-09-08T12:36:29.032Z,1008.9
2018-09-08T12:37:30.409Z,1008.8
2018-09-08T12:38:31.848Z,1008.9
2018-09-08T12:39:33.182Z,1008.8
2018-09-08T12:40:34.562Z,1008.8
2018-09-08T12:41:35.939Z,1008.8
2018-09-08T12:42:37.322Z,1008.8
2018-09-08T12:43:38.718Z,1008.6
2018-09-08T12:44:40.112Z,1008.6
2018-09-08T12:45:41.480Z,1008.7
2018-09-08T12:46:42.866Z,1008.8
2018-09-08T12:47:44.257Z,1008.8
2018-09-08T12:48:45.648Z,1008.8
2018-09-08T12:49:47.027Z,1008.8
2018-09-08T12:50:48.409Z,1008.8
2018-09-08T12:51:49.793Z,1008.8